createdAt,value
2024-04-13T00:00:42.089Z,62.05
2024-04-13T00:03:31.786Z,62.10
2024-04-13T00:05:59.533Z,62.05
2024-04-13T00:08:27.241Z,61.97
2024-04-13T00:10:54.860Z,61.96
2024-04-13T00:13:22.442Z,65.88
2024-04-13T00:15:59.218Z,65.81
2024-04-13T00:18:27.173Z,60.47
2024-04-13T00:20:54.808Z,56.41
2024-04-13T00:23:25.674Z,55.93
2024-04-13T00:25:54.478Z,56.68
2024-04-13T00:28:22.851Z,57.56
2024-04-13T00:30:50.694Z,58.49
2024-04-13T00:33:20.081Z,59.12
2024-04-13T00:35:47.724Z,59.52
2024-04-13T00:38:15.418Z,60.07
2024-04-13T00:40:43.288Z,60.46
2024-04-13T00:43:11.918Z,60.97
2024-04-13T00:45:46.222Z,61.39
2024-04-13T00:48:17.860Z,61.41
2024-04-13T00:50:48.009Z,64.90
2024-04-13T00:53:17.481Z,65.52
2024-04-13T00:55:45.643Z,62.54
2024-04-13T00:58:13.528Z,56.32
2024-04-13T01:00:42.350Z,54.25
2024-04-13T01:03:10.220Z,54.64
2024-04-13T01:05:39.625Z,55.41
2024-04-13T01:08:07.271Z,55.82
2024-04-13T01:10:34.882Z,56.56
2024-04-13T01:13:02.570Z,57.10
2024-04-13T01:15:30.294Z,57.46
2024-04-13T01:17:58.027Z,57.91
2024-04-13T01:20:26.033Z,58.37
2024-04-13T01:22:54.235Z,58.73
2024-04-13T01:25:23.020Z,58.97
2024-04-13T01:27:50.711Z,59.79
2024-04-13T01:30:19.040Z,59.91
2024-04-13T01:32:46.837Z,60.27
2024-04-13T01:35:15.028Z,60.74
2024-04-13T01:37:43.559Z,61.24
2024-04-13T01:40:11.847Z,61.52
2024-04-13T01:42:46.767Z,61.81
2024-04-13T01:45:15.005Z,61.75
2024-04-13T01:47:42.863Z,65.81
2024-04-13T01:50:12.265Z,65.79
2024-04-13T01:52:40.053Z,60.58
2024-04-13T01:55:08.367Z,55.07
2024-04-13T01:57:36.126Z,53.72
2024-04-13T02:00:04.407Z,54.37
2024-04-13T02:02:32.497Z,55.25
2024-04-13T02:05:00.149Z,56.13
2024-04-13T02:07:30.306Z,56.95
2024-04-13T02:09:58.136Z,57.37
2024-04-13T02:12:26.844Z,58.14
2024-04-13T02:14:55.840Z,59.03
2024-04-13T02:17:23.639Z,59.67
2024-04-13T02:19:51.368Z,59.97
2024-04-13T02:22:19.834Z,60.36
2024-04-13T02:24:47.859Z,60.85
2024-04-13T02:27:15.600Z,61.34
2024-04-13T02:29:44.519Z,61.69
2024-04-13T02:32:12.344Z,61.87
2024-04-13T02:34:40.938Z,65.73
2024-04-13T02:37:08.534Z,65.17
2024-04-13T02:39:36.208Z,60.09
2024-04-13T02:42:04.452Z,55.53
2024-04-13T02:44:32.152Z,55.20
2024-04-13T02:46:59.872Z,56.15
2024-04-13T02:49:28.271Z,56.98
2024-04-13T02:51:55.871Z,57.83
2024-04-13T02:54:23.675Z,58.75
2024-04-13T02:56:52.642Z,59.40
2024-04-13T02:59:21.220Z,60.07
2024-04-13T03:01:48.958Z,60.33
2024-04-13T03:04:17.743Z,60.88
2024-04-13T03:06:45.903Z,61.37
2024-04-13T03:09:14.038Z,61.98
2024-04-13T03:11:41.679Z,65.94
2024-04-13T03:14:09.360Z,65.54
2024-04-13T03:16:37.105Z,60.72
2024-04-13T03:19:04.758Z,56.15
2024-04-13T03:21:36.093Z,55.42
2024-04-13T03:24:05.109Z,56.42
2024-04-13T03:26:33.022Z,57.41
2024-04-13T03:29:01.358Z,58.24
2024-04-13T03:31:29.039Z,59.35
2024-04-13T03:33:59.916Z,59.92
2024-04-13T03:36:28.305Z,60.51
2024-04-13T03:38:56.884Z,60.90
2024-04-13T03:41:24.550Z,61.47
2024-04-13T03:43:52.258Z,61.80
2024-04-13T03:46:19.969Z,65.70
2024-04-13T03:48:48.225Z,65.38
2024-04-13T03:51:16.031Z,60.21
2024-04-13T03:53:43.744Z,55.31
2024-04-13T03:56:11.461Z,54.49
2024-04-13T03:58:39.572Z,55.89
2024-04-13T04:01:07.328Z,56.80
2024-04-13T04:03:35.287Z,57.50
2024-04-13T04:06:03.131Z,58.42
2024-04-13T04:08:30.726Z,59.34
2024-04-13T04:10:58.375Z,60.06
2024-04-13T04:13:26.022Z,61.03
2024-04-13T04:15:53.836Z,61.78
2024-04-13T04:18:21.895Z,65.94
2024-04-13T04:20:49.621Z,63.60
2024-04-13T04:23:17.191Z,60.33
2024-04-13T04:25:45.852Z,57.29
2024-04-13T04:28:13.591Z,57.66
2024-04-13T04:30:41.403Z,58.06
2024-04-13T04:33:09.170Z,59.49
2024-04-13T04:35:38.307Z,60.58
2024-04-13T04:38:05.909Z,64.16
2024-04-13T04:40:35.402Z,62.63
2024-04-13T04:43:03.072Z,58.68
2024-04-13T04:45:30.757Z,57.48
2024-04-13T04:47:59.023Z,58.38
2024-04-13T04:50:27.650Z,59.98
2024-04-13T04:52:55.358Z,60.49
2024-04-13T04:55:23.009Z,61.60
2024-04-13T04:57:50.927Z,65.60
2024-04-13T05:00:19.073Z,65.37
2024-04-13T05:02:46.974Z,58.46
2024-04-13T05:05:16.361Z,56.56
2024-04-13T05:07:44.029Z,57.05
2024-04-13T05:10:12.172Z,58.87
2024-04-13T05:12:39.918Z,59.48
2024-04-13T05:15:07.926Z,60.79
2024-04-13T05:17:35.701Z,60.79
2024-04-13T05:20:04.152Z,62.33
2024-04-13T05:22:31.878Z,66.54
2024-04-13T05:24:59.510Z,62.43
2024-04-13T05:27:27.228Z,57.07
2024-04-13T05:29:55.457Z,55.55
2024-04-13T05:32:23.740Z,56.51
2024-04-13T05:34:51.808Z,57.46
2024-04-13T05:37:19.499Z,58.82
2024-04-13T05:39:47.338Z,59.25
2024-04-13T05:42:15.004Z,60.27
2024-04-13T05:44:42.655Z,61.30
2024-04-13T05:47:10.260Z,62.20
2024-04-13T05:49:37.911Z,64.38
2024-04-13T05:52:06.004Z,60.19
2024-04-13T05:54:33.799Z,56.87
2024-04-13T05:57:01.889Z,56.95
2024-04-13T05:59:29.636Z,58.13
2024-04-13T06:01:58.867Z,58.90
2024-04-13T06:04:26.644Z,60.14
2024-04-13T06:06:54.417Z,60.79
2024-04-13T06:09:22.217Z,61.62
2024-04-13T06:11:50.255Z,62.58
2024-04-13T06:14:17.836Z,60.72
2024-04-13T06:16:48.571Z,57.36
2024-04-13T06:19:16.259Z,57.54
2024-04-13T06:21:44.209Z,58.86
2024-04-13T06:24:12.767Z,60.12
2024-04-13T06:26:40.827Z,60.49
2024-04-13T06:29:08.509Z,60.61
2024-04-13T06:31:36.383Z,61.53
2024-04-13T06:34:04.434Z,61.52
2024-04-13T06:36:32.209Z,63.59
2024-04-13T06:38:59.873Z,64.36
2024-04-13T06:41:27.559Z,58.04
2024-04-13T06:43:56.520Z,55.19
2024-04-13T06:46:24.138Z,55.39
2024-04-13T06:48:51.831Z,56.47
2024-04-13T06:51:19.542Z,57.35
2024-04-13T06:53:47.620Z,58.34
2024-04-13T06:56:15.985Z,58.64
2024-04-13T06:58:44.680Z,59.40
2024-04-13T07:01:12.570Z,59.37
2024-04-13T07:03:41.966Z,60.02
2024-04-13T07:06:09.887Z,60.47
2024-04-13T07:08:44.005Z,60.46
2024-04-13T07:11:12.599Z,60.38
2024-04-13T07:13:40.231Z,59.98
2024-04-13T07:16:08.186Z,59.78
2024-04-13T07:18:36.276Z,60.07
2024-04-13T07:21:04.088Z,59.91
2024-04-13T07:23:31.804Z,59.30
2024-04-13T07:26:00.516Z,58.85
2024-04-13T07:28:29.267Z,58.28
2024-04-13T07:30:57.405Z,58.11
2024-04-13T07:33:25.332Z,57.48
2024-04-13T07:35:53.195Z,57.37
2024-04-13T07:38:21.598Z,56.98
2024-04-13T07:40:49.285Z,56.67
2024-04-13T07:43:16.969Z,56.05
2024-04-13T07:45:45.997Z,55.46
2024-04-13T07:48:13.858Z,55.76
2024-04-13T07:50:41.537Z,55.99
2024-04-13T07:53:09.867Z,55.29
2024-04-13T07:55:37.492Z,54.93
2024-04-13T07:58:05.188Z,54.46
2024-04-13T08:00:33.094Z,54.70
2024-04-13T08:03:02.070Z,54.85
2024-04-13T08:05:30.874Z,54.90
2024-04-13T08:07:58.494Z,53.59
2024-04-13T08:10:26.260Z,52.80
2024-04-13T08:12:53.871Z,52.87
2024-04-13T08:15:21.987Z,52.61
2024-04-13T08:17:49.772Z,51.77
2024-04-13T08:20:18.355Z,51.55
2024-04-13T08:22:46.186Z,50.98
2024-04-13T08:25:13.751Z,50.93
2024-04-13T08:27:41.434Z,49.68
2024-04-13T08:30:10.318Z,49.80
2024-04-13T08:32:39.016Z,49.35
2024-04-13T08:35:09.739Z,48.25
2024-04-13T08:37:37.607Z,47.16
2024-04-13T08:40:05.884Z,47.42
2024-04-13T08:42:37.176Z,47.57
2024-04-13T08:45:05.572Z,46.17
2024-04-13T08:47:34.100Z,45.20
2024-04-13T08:50:03.710Z,45.61
2024-04-13T08:52:31.815Z,44.41
2024-04-13T08:54:59.727Z,43.45
2024-04-13T08:57:30.485Z,43.70
2024-04-13T09:00:01.463Z,44.50
2024-04-13T09:02:36.487Z,44.77
2024-04-13T09:05:05.846Z,45.08
2024-04-13T09:07:34.867Z,45.71
2024-04-13T09:10:05.459Z,46.03
2024-04-13T09:12:33.146Z,46.04
2024-04-13T09:15:01.732Z,46.33
2024-04-13T09:17:32.716Z,46.21
2024-04-13T09:20:08.694Z,46.33
2024-04-13T09:22:37.871Z,46.36
2024-04-13T09:25:05.826Z,46.35
2024-04-13T09:27:35.642Z,45.66
2024-04-13T09:30:10.480Z,45.30
2024-04-13T09:32:38.580Z,45.78
2024-04-13T09:35:10.866Z,46.02
2024-04-13T09:37:39.571Z,45.77
2024-04-13T09:40:08.519Z,45.56
2024-04-13T09:42:36.667Z,45.38
2024-04-13T09:45:08.169Z,45.28
2024-04-13T09:47:36.019Z,45.11
2024-04-13T09:50:04.343Z,45.19
2024-04-13T09:52:33.428Z,45.59
2024-04-13T09:55:01.745Z,45.72
2024-04-13T09:57:29.690Z,45.22
2024-04-13T09:59:57.733Z,43.98
2024-04-13T10:02:26.163Z,43.22
2024-04-13T10:04:53.986Z,43.43
2024-04-13T10:07:25.253Z,43.92
2024-04-13T10:09:59.358Z,44.17
2024-04-13T10:12:31.328Z,44.09
2024-04-13T10:14:59.681Z,43.46
2024-04-13T10:17:28.241Z,42.97
2024-04-13T10:19:56.415Z,42.87
2024-04-13T10:22:32.056Z,42.66
2024-04-13T10:25:07.344Z,42.59
2024-04-13T10:27:35.883Z,43.01
2024-04-13T10:30:06.921Z,43.53
2024-04-13T10:32:34.626Z,43.51
2024-04-13T10:35:14.922Z,43.40
2024-04-13T10:37:42.604Z,43.33
2024-04-13T10:40:10.208Z,42.54
2024-04-13T10:42:39.572Z,42.30
2024-04-13T10:45:15.394Z,42.75
2024-04-13T10:47:43.625Z,43.07
2024-04-13T10:50:12.905Z,43.31
2024-04-13T10:52:41.131Z,43.37
2024-04-13T10:55:13.051Z,43.03
2024-04-13T10:57:44.303Z,42.86
2024-04-13T11:00:12.357Z,41.68
2024-04-13T11:02:40.239Z,41.83
2024-04-13T11:05:08.545Z,42.61
2024-04-13T11:07:36.985Z,42.98
2024-04-13T11:10:05.295Z,42.01
2024-04-13T11:12:33.005Z,41.87
2024-04-13T11:15:00.818Z,42.67
2024-04-13T11:17:28.770Z,43.33
2024-04-13T11:19:57.045Z,43.19
2024-04-13T11:22:27.878Z,43.13
2024-04-13T11:24:56.908Z,43.16
2024-04-13T11:27:24.916Z,42.16
2024-04-13T11:29:53.281Z,41.50
2024-04-13T11:32:21.124Z,40.98
2024-04-13T11:34:48.816Z,41.47
2024-04-13T11:37:18.884Z,41.98
2024-04-13T11:39:47.567Z,41.95
2024-04-13T11:42:15.769Z,41.71
2024-04-13T11:44:43.737Z,42.09
2024-04-13T11:47:11.547Z,42.05
2024-04-13T11:49:42.000Z,41.98
2024-04-13T11:52:14.379Z,41.38
2024-04-13T11:54:42.840Z,41.38
2024-04-13T11:57:12.078Z,41.64
2024-04-13T11:59:40.541Z,41.70
2024-04-13T12:02:08.208Z,41.09
2024-04-13T12:04:35.926Z,40.60
2024-04-13T12:07:03.937Z,40.41
2024-04-13T12:09:31.658Z,40.21
2024-04-13T12:12:02.701Z,40.62
2024-04-13T12:14:39.849Z,40.15
2024-04-13T12:17:17.719Z,39.63
2024-04-13T12:19:49.192Z,39.33
2024-04-13T12:22:17.251Z,39.43
2024-04-13T12:24:44.990Z,39.36
2024-04-13T12:27:12.706Z,39.14
2024-04-13T12:29:40.830Z,39.59
2024-04-13T12:32:08.562Z,39.12
2024-04-13T12:34:37.230Z,39.04
2024-04-13T12:37:04.948Z,38.42
2024-04-13T12:39:32.715Z,38.40
2024-04-13T12:42:02.656Z,38.66
2024-04-13T12:44:30.851Z,38.11
2024-04-13T12:46:58.772Z,38.22
2024-04-13T12:49:26.539Z,38.51
2024-04-13T12:51:54.452Z,38.55
2024-04-13T12:54:22.130Z,38.83
2024-04-13T12:56:49.826Z,38.82
2024-04-13T12:59:17.604Z,38.37
2024-04-13T13:01:45.351Z,38.23
2024-04-13T13:04:13.261Z,37.76
2024-04-13T13:06:41.149Z,37.73
2024-04-13T13:09:08.903Z,37.83
2024-04-13T13:11:36.564Z,37.68
2024-04-13T13:14:04.728Z,36.58
2024-04-13T13:16:32.376Z,36.60
2024-04-13T13:19:00.048Z,36.11
2024-04-13T13:21:27.897Z,36.20
2024-04-13T13:23:55.674Z,36.81
2024-04-13T13:26:23.458Z,37.16
2024-04-13T13:28:53.151Z,37.19
2024-04-13T13:31:21.635Z,37.27
2024-04-13T13:33:49.325Z,37.32
2024-04-13T13:36:17.350Z,37.25
2024-04-13T13:38:44.980Z,37.11
2024-04-13T13:41:12.559Z,36.76
2024-04-13T13:43:40.144Z,36.50
2024-04-13T13:46:07.779Z,35.93
2024-04-13T13:48:35.752Z,35.99
2024-04-13T13:51:04.060Z,35.86
2024-04-13T13:53:31.701Z,35.21
2024-04-13T13:55:59.412Z,35.20
2024-04-13T13:58:27.116Z,35.24
2024-04-13T14:00:55.372Z,35.19
2024-04-13T14:03:23.442Z,34.67
2024-04-13T14:05:51.207Z,34.60
2024-04-13T14:08:18.898Z,34.70
2024-04-13T14:10:46.573Z,35.01
2024-04-13T14:13:14.293Z,35.00
2024-04-13T14:15:42.393Z,34.67
2024-04-13T14:18:10.149Z,34.59
2024-04-13T14:20:44.673Z,34.31
2024-04-13T14:23:12.927Z,34.01
2024-04-13T14:25:40.724Z,33.74
2024-04-13T14:28:08.469Z,33.97
2024-04-13T14:30:36.375Z,34.14
2024-04-13T14:33:04.492Z,34.58
2024-04-13T14:35:32.617Z,34.70
2024-04-13T14:38:01.227Z,34.16
2024-04-13T14:40:29.049Z,34.21
2024-04-13T14:42:57.345Z,34.46
2024-04-13T14:45:25.377Z,34.68
2024-04-13T14:47:53.083Z,34.97
2024-04-13T14:50:20.752Z,35.25
2024-04-13T14:52:48.565Z,35.34
2024-04-13T14:55:16.807Z,35.22
2024-04-13T14:57:47.120Z,35.09
2024-04-13T15:00:15.295Z,35.17
2024-04-13T15:02:43.644Z,35.29
2024-04-13T15:05:11.439Z,35.39
2024-04-13T15:07:39.322Z,35.89
2024-04-13T15:10:07.592Z,36.28
2024-04-13T15:12:35.439Z,36.60
2024-04-13T15:15:03.288Z,36.39
2024-04-13T15:17:31.613Z,36.39
2024-04-13T15:19:59.422Z,36.44
2024-04-13T15:22:27.065Z,36.36
2024-04-13T15:24:54.912Z,36.22
2024-04-13T15:27:22.609Z,36.06
2024-04-13T15:29:50.206Z,35.92
2024-04-13T15:32:18.400Z,35.77
2024-04-13T15:34:46.183Z,35.58
2024-04-13T15:37:17.254Z,35.22
2024-04-13T15:39:44.926Z,35.27
2024-04-13T15:42:12.587Z,35.06
2024-04-13T15:44:40.285Z,35.05
2024-04-13T15:47:07.943Z,35.06
2024-04-13T15:49:35.551Z,35.05
2024-04-13T15:52:03.312Z,35.10
2024-04-13T15:54:30.973Z,35.14
2024-04-13T15:56:58.629Z,35.03
2024-04-13T15:59:26.821Z,34.91
2024-04-13T16:01:55.920Z,34.89
2024-04-13T16:04:23.691Z,35.00
2024-04-13T16:06:54.527Z,35.15
2024-04-13T16:09:22.278Z,35.29
2024-04-13T16:11:49.935Z,35.45
2024-04-13T16:14:20.368Z,35.54
2024-04-13T16:16:48.514Z,35.59
2024-04-13T16:19:16.426Z,35.63
2024-04-13T16:21:44.425Z,35.77
2024-04-13T16:24:12.059Z,36.01
2024-04-13T16:26:39.773Z,36.28
2024-04-13T16:29:07.732Z,36.42
2024-04-13T16:31:35.358Z,36.80
2024-04-13T16:34:03.250Z,36.99
2024-04-13T16:36:31.169Z,37.42
2024-04-13T16:38:59.203Z,37.75
2024-04-13T16:41:26.958Z,38.23
2024-04-13T16:43:54.704Z,38.67
2024-04-13T16:46:22.538Z,38.92
2024-04-13T16:48:50.242Z,39.27
2024-04-13T16:51:18.139Z,39.60
2024-04-13T16:53:45.826Z,39.94
2024-04-13T16:56:13.509Z,40.23
2024-04-13T16:58:41.474Z,40.48
2024-04-13T17:01:09.342Z,40.73
2024-04-13T17:03:37.119Z,40.92
2024-04-13T17:06:05.156Z,41.25
2024-04-13T17:08:32.856Z,41.59
2024-04-13T17:11:00.522Z,41.73
2024-04-13T17:13:29.045Z,42.12
2024-04-13T17:15:56.793Z,42.31
2024-04-13T17:18:24.627Z,42.37
2024-04-13T17:20:53.396Z,42.73
2024-04-13T17:23:21.377Z,42.92
2024-04-13T17:25:49.047Z,42.94
2024-04-13T17:28:16.707Z,43.25
2024-04-13T17:30:46.987Z,43.44
2024-04-13T17:33:14.822Z,43.52
2024-04-13T17:35:42.464Z,43.81
2024-04-13T17:38:10.133Z,43.83
2024-04-13T17:40:39.129Z,44.27
2024-04-13T17:43:07.081Z,44.25
2024-04-13T17:45:34.896Z,44.40
2024-04-13T17:48:03.711Z,44.80
2024-04-13T17:50:31.347Z,44.87
2024-04-13T17:52:58.914Z,45.20
2024-04-13T17:55:26.935Z,45.20
2024-04-13T17:57:54.623Z,45.39
2024-04-13T18:00:22.254Z,45.95
2024-04-13T18:02:49.998Z,46.10
2024-04-13T18:05:17.636Z,46.35
2024-04-13T18:07:45.305Z,46.32
2024-04-13T18:10:12.954Z,46.63
2024-04-13T18:12:40.722Z,46.56
2024-04-13T18:15:08.486Z,46.64
2024-04-13T18:17:36.129Z,47.01
2024-04-13T18:20:03.948Z,47.20
2024-04-13T18:22:32.737Z,47.17
2024-04-13T18:25:00.393Z,47.40
2024-04-13T18:27:28.481Z,47.63
2024-04-13T18:29:56.539Z,47.73
2024-04-13T18:32:24.195Z,47.76
2024-04-13T18:34:51.824Z,48.04
2024-04-13T18:37:19.468Z,48.12
2024-04-13T18:39:47.068Z,48.29
2024-04-13T18:42:16.446Z,48.45
2024-04-13T18:44:44.296Z,48.57
2024-04-13T18:47:11.977Z,48.72
2024-04-13T18:49:45.212Z,48.86
2024-04-13T18:52:12.852Z,48.97
2024-04-13T18:54:40.547Z,49.20
2024-04-13T18:57:08.269Z,49.56
2024-04-13T18:59:35.843Z,49.78
2024-04-13T19:02:04.264Z,49.96
2024-04-13T19:04:31.992Z,50.24
2024-04-13T19:06:59.647Z,50.39
2024-04-13T19:09:27.366Z,50.49
2024-04-13T19:11:55.338Z,50.48
2024-04-13T19:14:23.065Z,50.87
2024-04-13T19:16:52.075Z,51.54
2024-04-13T19:19:19.914Z,51.54
2024-04-13T19:21:47.837Z,51.68
2024-04-13T19:24:16.530Z,51.70
2024-04-13T19:26:44.358Z,51.75
2024-04-13T19:29:13.266Z,51.95
2024-04-13T19:31:41.157Z,52.17
2024-04-13T19:34:09.930Z,52.26
2024-04-13T19:36:37.890Z,52.37
2024-04-13T19:39:05.660Z,52.65
2024-04-13T19:41:33.229Z,52.78
2024-04-13T19:44:00.901Z,53.14
2024-04-13T19:46:28.724Z,53.31
2024-04-13T19:48:56.507Z,54.20
2024-04-13T19:51:24.296Z,54.15
2024-04-13T19:53:53.667Z,54.56
2024-04-13T19:56:21.322Z,55.04
2024-04-13T19:58:48.930Z,55.02
2024-04-13T20:01:17.022Z,55.19
2024-04-13T20:03:44.921Z,55.69
2024-04-13T20:06:12.683Z,56.05
2024-04-13T20:08:42.906Z,56.20
2024-04-13T20:11:10.684Z,56.00
2024-04-13T20:13:38.418Z,56.05
2024-04-13T20:16:24.942Z,56.20
2024-04-13T20:18:52.703Z,56.33
2024-04-13T20:21:20.565Z,56.56
2024-04-13T20:23:48.229Z,56.69
2024-04-13T20:26:16.208Z,57.04
2024-04-13T20:28:45.148Z,56.98
2024-04-13T20:31:13.879Z,57.15
2024-04-13T20:33:46.336Z,57.41
2024-04-13T20:36:14.185Z,57.73
2024-04-13T20:38:42.423Z,57.90
2024-04-13T20:41:10.221Z,57.85
2024-04-13T20:43:40.793Z,58.02
2024-04-13T20:46:08.752Z,58.30
2024-04-13T20:48:36.412Z,58.76
2024-04-13T20:51:04.351Z,58.95
2024-04-13T20:53:32.110Z,59.08
2024-04-13T20:55:59.924Z,59.13
2024-04-13T20:58:27.894Z,59.30
2024-04-13T21:00:59.837Z,59.72
2024-04-13T21:03:27.754Z,59.81
2024-04-13T21:05:55.467Z,59.77
2024-04-13T21:08:23.118Z,59.87
2024-04-13T21:10:50.751Z,60.02
2024-04-13T21:13:18.362Z,60.13
2024-04-13T21:15:46.056Z,60.31
2024-04-13T21:18:13.861Z,60.30
2024-04-13T21:20:41.471Z,60.38
2024-04-13T21:23:09.111Z,60.87
2024-04-13T21:25:38.584Z,60.70
2024-04-13T21:28:07.808Z,60.78
2024-04-13T21:30:38.667Z,61.16
2024-04-13T21:33:06.567Z,61.23
2024-04-13T21:35:34.335Z,61.37
2024-04-13T21:38:01.991Z,61.51
2024-04-13T21:40:29.675Z,61.72
2024-04-13T21:42:57.906Z,61.85
2024-04-13T21:45:25.540Z,62.04
2024-04-13T21:47:53.236Z,65.63
2024-04-13T21:50:21.095Z,66.25
2024-04-13T21:52:48.821Z,61.16
2024-04-13T21:55:16.880Z,56.20
2024-04-13T21:57:44.708Z,55.13
2024-04-13T22:00:15.449Z,56.01
2024-04-13T22:02:43.102Z,56.64
2024-04-13T22:05:10.780Z,57.18
2024-04-13T22:07:38.494Z,56.70
2024-04-13T22:10:06.518Z,57.93
2024-04-13T22:12:34.208Z,57.64
2024-04-13T22:15:01.824Z,58.00
2024-04-13T22:17:29.496Z,58.61
2024-04-13T22:19:57.092Z,59.14
2024-04-13T22:22:24.797Z,59.56
2024-04-13T22:24:52.479Z,59.98
2024-04-13T22:27:20.218Z,60.13
2024-04-13T22:29:48.357Z,60.52
2024-04-13T22:32:16.038Z,60.91
2024-04-13T22:34:43.678Z,61.12
2024-04-13T22:37:11.385Z,61.37
2024-04-13T22:39:39.135Z,61.56
2024-04-13T22:42:07.390Z,61.70
2024-04-13T22:44:35.125Z,61.98
2024-04-13T22:47:02.872Z,65.68
2024-04-13T22:49:30.974Z,64.94
2024-04-13T22:51:58.684Z,60.39
2024-04-13T22:54:26.429Z,55.76
2024-04-13T22:56:54.238Z,54.94
2024-04-13T22:59:22.111Z,56.61
2024-04-13T23:01:50.934Z,58.17
2024-04-13T23:04:18.755Z,58.03
2024-04-13T23:06:46.535Z,58.29
2024-04-13T23:09:14.294Z,59.45
2024-04-13T23:11:41.985Z,60.29
2024-04-13T23:14:10.891Z,60.72
2024-04-13T23:16:38.628Z,60.99
2024-04-13T23:19:06.525Z,61.14
2024-04-13T23:21:36.948Z,61.37
2024-04-13T23:24:04.807Z,61.27
2024-04-13T23:26:32.918Z,64.69
2024-04-13T23:29:01.069Z,64.93
2024-04-13T23:31:29.793Z,62.05
2024-04-13T23:33:57.554Z,57.74
2024-04-13T23:36:25.205Z,56.11
2024-04-13T23:38:52.863Z,56.52
2024-04-13T23:41:20.708Z,57.55
2024-04-13T23:43:48.921Z,58.13
2024-04-13T23:46:16.825Z,58.87
2024-04-13T23:48:44.659Z,59.43
2024-04-13T23:51:12.530Z,59.82
2024-04-13T23:53:40.181Z,60.12
2024-04-13T23:56:08.682Z,60.53
2024-04-13T23:58:36.253Z,61.03
